createdAt,value
2019-05-14T00:00:41.742Z,45.06
2019-05-14T00:03:16.151Z,45.03
2019-05-14T00:05:51.876Z,45.03
2019-05-14T00:08:26.188Z,45.03
2019-05-14T00:11:01.417Z,44.36
2019-05-14T00:13:35.791Z,44.55
2019-05-14T00:16:11.845Z,44.96
2019-05-14T00:18:46.073Z,45.26
2019-05-14T00:21:21.108Z,45.15
2019-05-14T00:23:55.131Z,45.16
2019-05-14T00:26:29.184Z,45.19
2019-05-14T00:29:03.373Z,45.23
2019-05-14T00:31:37.593Z,45.19
2019-05-14T00:34:11.824Z,45.20
2019-05-14T00:36:46.897Z,45.28
2019-05-14T00:39:21.414Z,45.19
2019-05-14T00:41:55.956Z,44.56
2019-05-14T00:44:32.155Z,44.70
2019-05-14T00:47:06.402Z,45.08
2019-05-14T00:49:42.469Z,45.33
2019-05-14T00:52:17.006Z,45.54
2019-05-14T00:54:52.246Z,45.44
2019-05-14T00:57:26.886Z,45.39
2019-05-14T01:00:01.280Z,45.33
2019-05-14T01:02:35.663Z,45.25
2019-05-14T01:05:12.431Z,45.31
2019-05-14T01:07:46.489Z,45.44
2019-05-14T01:10:22.182Z,45.47
2019-05-14T01:12:56.605Z,45.04
2019-05-14T01:15:32.248Z,45.00
2019-05-14T01:18:07.020Z,45.00
2019-05-14T01:20:41.281Z,45.07
2019-05-14T01:23:15.566Z,45.02
2019-05-14T01:25:51.454Z,45.06
2019-05-14T01:28:24.921Z,45.15
2019-05-14T01:31:01.011Z,45.08
2019-05-14T01:33:34.639Z,45.15
2019-05-14T01:36:08.830Z,45.16
2019-05-14T01:38:43.042Z,45.11
2019-05-14T01:41:17.184Z,45.10
2019-05-14T01:43:51.491Z,44.37
2019-05-14T01:46:25.699Z,44.65
2019-05-14T01:49:01.549Z,45.11
2019-05-14T01:51:36.440Z,45.33
2019-05-14T01:54:11.908Z,45.58
2019-05-14T01:56:46.837Z,45.79
2019-05-14T01:59:21.299Z,45.97
2019-05-14T02:01:55.475Z,46.12
2019-05-14T02:04:31.660Z,46.22
2019-05-14T02:07:05.347Z,46.34
2019-05-14T02:09:41.789Z,46.53
2019-05-14T02:12:15.599Z,46.42
2019-05-14T02:14:51.215Z,45.54
2019-05-14T02:17:25.645Z,45.78
2019-05-14T02:20:01.863Z,46.14
2019-05-14T02:22:35.738Z,46.33
2019-05-14T02:25:11.627Z,46.52
2019-05-14T02:27:46.277Z,46.61
2019-05-14T02:30:28.551Z,46.64
2019-05-14T02:32:59.420Z,46.61
2019-05-14T02:35:32.319Z,46.43
2019-05-14T02:38:10.117Z,46.28
2019-05-14T02:40:42.607Z,46.33
2019-05-14T02:43:19.638Z,46.26
2019-05-14T02:46:09.491Z,45.33
2019-05-14T02:48:29.464Z,45.67
2019-05-14T02:51:03.877Z,46.05
2019-05-14T02:53:39.159Z,46.35
2019-05-14T02:56:13.357Z,46.47
2019-05-14T02:58:49.871Z,46.40
2019-05-14T03:01:23.550Z,46.80
2019-05-14T03:03:59.854Z,46.72
2019-05-14T03:06:33.623Z,46.59
2019-05-14T03:09:09.754Z,46.51
2019-05-14T03:11:44.054Z,46.49
2019-05-14T03:14:19.610Z,46.43
2019-05-14T03:16:53.960Z,45.49
2019-05-14T03:19:29.789Z,46.03
2019-05-14T03:22:04.089Z,46.29
2019-05-14T03:24:39.693Z,46.52
2019-05-14T03:27:14.541Z,46.72
2019-05-14T03:29:50.188Z,46.92
2019-05-14T03:32:24.566Z,47.09
2019-05-14T03:35:03.655Z,47.17
2019-05-14T03:37:35.166Z,47.30
2019-05-14T03:40:10.420Z,47.17
2019-05-14T03:42:44.663Z,47.15
2019-05-14T03:45:25.022Z,47.10
2019-05-14T03:48:00.574Z,45.95
2019-05-14T03:50:35.000Z,46.50
2019-05-14T03:53:10.170Z,46.77
2019-05-14T03:55:45.514Z,46.97
2019-05-14T03:58:21.078Z,47.13
2019-05-14T04:01:01.103Z,47.15
2019-05-14T04:03:39.629Z,46.55
2019-05-14T04:06:13.248Z,46.49
2019-05-14T04:08:49.708Z,46.25
2019-05-14T04:11:29.192Z,46.13
2019-05-14T04:14:04.648Z,46.05
2019-05-14T04:16:59.526Z,45.98
2019-05-14T04:19:19.029Z,45.88
2019-05-14T04:21:54.225Z,45.82
2019-05-14T04:24:31.225Z,45.95
2019-05-14T04:27:11.744Z,45.87
2019-05-14T04:29:44.050Z,45.84
2019-05-14T04:32:20.247Z,45.79
2019-05-14T04:34:54.497Z,45.79
2019-05-14T04:37:29.157Z,45.89
2019-05-14T04:40:03.977Z,46.16
2019-05-14T04:42:40.106Z,46.33
2019-05-14T04:45:13.540Z,46.45
2019-05-14T04:47:49.910Z,46.42
2019-05-14T04:50:25.532Z,46.40
2019-05-14T04:52:59.906Z,46.37
2019-05-14T04:55:34.072Z,46.32
2019-05-14T04:58:10.103Z,46.29
2019-05-14T05:00:44.155Z,46.18
2019-05-14T05:03:19.994Z,46.98
2019-05-14T05:05:54.612Z,48.09
2019-05-14T05:08:30.405Z,47.67
2019-05-14T05:11:05.011Z,47.67
2019-05-14T05:13:39.893Z,47.55
2019-05-14T05:16:14.654Z,47.49
2019-05-14T05:18:49.503Z,47.47
2019-05-14T05:21:23.818Z,47.35
2019-05-14T05:23:58.514Z,47.33
2019-05-14T05:26:32.679Z,47.27
2019-05-14T05:29:10.240Z,47.11
2019-05-14T05:31:42.941Z,47.07
2019-05-14T05:34:19.198Z,47.03
2019-05-14T05:36:54.130Z,46.95
2019-05-14T05:39:30.358Z,46.88
2019-05-14T05:42:04.886Z,46.80
2019-05-14T05:44:39.651Z,46.67
2019-05-14T05:47:14.493Z,46.65
2019-05-14T05:49:49.031Z,46.65
2019-05-14T05:52:23.509Z,46.67
2019-05-14T05:54:58.344Z,46.63
2019-05-14T05:57:32.666Z,46.64
2019-05-14T06:00:09.412Z,46.72
2019-05-14T06:02:44.103Z,46.79
2019-05-14T06:05:19.512Z,46.77
2019-05-14T06:07:53.806Z,46.76
2019-05-14T06:10:29.095Z,46.74
2019-05-14T06:13:03.892Z,46.73
2019-05-14T06:15:45.619Z,46.70
2019-05-14T06:18:19.431Z,46.70
2019-05-14T06:20:51.756Z,46.60
2019-05-14T06:23:28.456Z,46.62
2019-05-14T06:26:02.496Z,46.58
2019-05-14T06:28:40.370Z,46.52
2019-05-14T06:31:13.052Z,46.45
2019-05-14T06:33:48.654Z,46.44
2019-05-14T06:36:24.180Z,46.38
2019-05-14T06:38:58.765Z,46.38
2019-05-14T06:41:33.074Z,46.15
2019-05-14T06:44:09.179Z,46.27
2019-05-14T06:46:43.402Z,46.49
2019-05-14T06:49:18.353Z,46.98
2019-05-14T06:51:52.686Z,47.25
2019-05-14T06:54:29.125Z,47.56
2019-05-14T06:57:02.847Z,47.79
2019-05-14T06:59:38.088Z,47.92
2019-05-14T07:02:12.615Z,47.99
2019-05-14T07:04:48.514Z,47.97
2019-05-14T07:07:23.222Z,47.92
2019-05-14T07:09:58.176Z,47.83
2019-05-14T07:12:32.559Z,47.78
2019-05-14T07:15:09.033Z,47.87
2019-05-14T07:17:42.497Z,47.86
2019-05-14T07:20:18.926Z,48.56
2019-05-14T07:22:53.788Z,49.22
2019-05-14T07:25:29.260Z,49.45
2019-05-14T07:28:03.422Z,49.45
2019-05-14T07:30:39.646Z,49.69
2019-05-14T07:33:13.920Z,49.72
2019-05-14T07:35:48.809Z,49.80
2019-05-14T07:38:23.218Z,50.00
2019-05-14T07:40:58.521Z,49.99
2019-05-14T07:43:33.114Z,49.92
2019-05-14T07:46:08.528Z,49.85
2019-05-14T07:48:42.992Z,49.82
2019-05-14T07:51:19.062Z,49.73
2019-05-14T07:53:53.785Z,49.62
2019-05-14T07:56:29.276Z,49.56
2019-05-14T07:59:05.361Z,49.54
2019-05-14T08:01:40.678Z,49.60
2019-05-14T08:04:17.892Z,49.34
2019-05-14T08:06:52.598Z,49.24
2019-05-14T08:09:28.241Z,48.99
2019-05-14T08:12:03.467Z,48.88
2019-05-14T08:14:46.130Z,48.70
2019-05-14T08:17:14.031Z,48.48
2019-05-14T08:19:49.105Z,48.37
2019-05-14T08:22:23.712Z,48.29
2019-05-14T08:24:58.196Z,48.09
2019-05-14T08:27:32.398Z,47.97
2019-05-14T08:30:08.220Z,47.91
2019-05-14T08:32:42.609Z,47.75
2019-05-14T08:35:18.541Z,47.71
2019-05-14T08:38:04.704Z,47.61
2019-05-14T08:40:28.887Z,47.45
2019-05-14T08:43:03.301Z,47.42
2019-05-14T08:45:38.913Z,47.35
2019-05-14T08:48:14.224Z,47.34
2019-05-14T08:50:49.178Z,47.27
2019-05-14T08:53:23.454Z,47.23
2019-05-14T08:55:58.799Z,47.17
2019-05-14T08:58:33.568Z,47.12
2019-05-14T09:01:08.386Z,47.06
2019-05-14T09:03:42.961Z,46.95
2019-05-14T09:06:18.626Z,46.95
2019-05-14T09:08:53.172Z,46.88
2019-05-14T09:11:34.318Z,46.75
2019-05-14T09:14:03.729Z,47.24
2019-05-14T09:16:46.283Z,46.97
2019-05-14T09:19:14.158Z,46.95
2019-05-14T09:21:49.662Z,46.84
2019-05-14T09:24:24.439Z,46.77
2019-05-14T09:26:59.389Z,46.77
2019-05-14T09:29:33.607Z,46.59
2019-05-14T09:32:09.635Z,46.79
2019-05-14T09:34:48.640Z,46.79
2019-05-14T09:37:23.442Z,46.47
2019-05-14T09:40:04.829Z,46.30
2019-05-14T09:42:41.713Z,46.33
2019-05-14T09:45:31.863Z,46.12
2019-05-14T09:48:18.084Z,46.33
2019-05-14T09:51:18.228Z,46.54
2019-05-14T09:54:02.944Z,47.05
2019-05-14T09:57:05.379Z,47.05
2019-05-14T09:59:48.925Z,46.00
2019-05-14T10:02:34.622Z,44.31
2019-05-14T10:05:22.077Z,42.84
2019-05-14T10:08:08.970Z,42.14
2019-05-14T10:11:00.869Z,40.73
2019-05-14T10:13:59.908Z,39.77
2019-05-14T10:16:49.191Z,39.17
2019-05-14T10:19:38.901Z,38.55
2019-05-14T10:22:22.726Z,38.11
2019-05-14T10:25:12.234Z,38.57
2019-05-14T10:28:04.065Z,38.15
2019-05-14T10:30:49.364Z,37.76
2019-05-14T10:33:38.822Z,37.25
2019-05-14T10:36:14.736Z,37.89
2019-05-14T10:38:49.099Z,37.71
2019-05-14T10:41:23.302Z,37.56
2019-05-14T10:43:58.933Z,37.31
2019-05-14T10:46:33.517Z,37.26
2019-05-14T10:49:17.427Z,36.78
2019-05-14T10:51:43.767Z,36.46
2019-05-14T10:54:24.986Z,36.12
2019-05-14T10:56:54.563Z,35.75
2019-05-14T10:59:29.431Z,35.62
2019-05-14T11:02:03.832Z,35.14
2019-05-14T11:04:38.918Z,35.02
2019-05-14T11:07:13.287Z,34.73
2019-05-14T11:09:48.642Z,34.37
2019-05-14T11:12:23.090Z,34.29
2019-05-14T11:14:57.504Z,34.13
2019-05-14T11:17:31.564Z,34.12
2019-05-14T11:20:08.075Z,34.09
2019-05-14T11:22:42.631Z,34.07
2019-05-14T11:25:19.582Z,33.85
2019-05-14T11:27:53.807Z,33.94
2019-05-14T11:30:28.751Z,33.78
2019-05-14T11:33:03.017Z,33.61
2019-05-14T11:35:39.406Z,33.46
2019-05-14T11:38:28.444Z,33.51
2019-05-14T11:40:50.018Z,33.50
2019-05-14T11:43:24.781Z,33.35
2019-05-14T11:45:59.486Z,33.31
2019-05-14T11:48:33.848Z,33.25
2019-05-14T11:51:08.970Z,33.21
2019-05-14T11:53:43.499Z,33.07
2019-05-14T11:56:19.388Z,33.05
2019-05-14T11:58:53.836Z,32.96
2019-05-14T12:01:29.801Z,33.09
2019-05-14T12:04:04.290Z,32.97
2019-05-14T12:06:39.270Z,32.91
2019-05-14T12:09:13.545Z,32.78
2019-05-14T12:11:47.652Z,32.77
2019-05-14T12:14:21.989Z,32.70
2019-05-14T12:16:56.291Z,32.67
2019-05-14T12:19:30.351Z,32.71
2019-05-14T12:22:08.564Z,32.55
2019-05-14T12:24:41.978Z,32.56
2019-05-14T12:27:19.151Z,32.60
2019-05-14T12:29:53.344Z,32.50
2019-05-14T12:32:29.525Z,32.55
2019-05-14T12:35:03.680Z,32.54
2019-05-14T12:37:38.841Z,32.52
2019-05-14T12:40:13.298Z,34.11
2019-05-14T12:42:49.837Z,33.96
2019-05-14T12:45:23.754Z,34.11
2019-05-14T12:47:58.543Z,34.07
2019-05-14T12:50:32.954Z,33.67
2019-05-14T12:53:08.364Z,33.41
2019-05-14T12:55:42.630Z,33.21
2019-05-14T12:58:19.989Z,33.13
2019-05-14T13:00:52.527Z,33.08
2019-05-14T13:03:28.493Z,32.73
2019-05-14T13:06:02.618Z,32.70
2019-05-14T13:08:38.753Z,32.66
2019-05-14T13:11:13.109Z,31.93
2019-05-14T13:13:48.987Z,31.51
2019-05-14T13:16:24.202Z,31.67
2019-05-14T13:18:59.852Z,31.91
2019-05-14T13:21:34.812Z,32.20
2019-05-14T13:24:09.188Z,32.48
2019-05-14T13:27:09.246Z,32.76
2019-05-14T13:29:42.828Z,33.07
2019-05-14T13:32:21.001Z,33.52
2019-05-14T13:34:55.426Z,33.80
2019-05-14T13:37:29.946Z,34.07
2019-05-14T13:40:04.205Z,34.36
2019-05-14T13:42:40.038Z,34.62
2019-05-14T13:45:15.011Z,34.88
2019-05-14T13:48:03.728Z,35.25
2019-05-14T13:50:39.963Z,35.55
2019-05-14T13:53:14.426Z,35.72
2019-05-14T13:55:57.127Z,35.90
2019-05-14T13:58:24.954Z,36.04
2019-05-14T14:00:59.657Z,36.24
2019-05-14T14:03:34.404Z,36.42
2019-05-14T14:06:11.202Z,36.52
2019-05-14T14:08:49.413Z,36.81
2019-05-14T14:11:21.115Z,37.00
2019-05-14T14:13:58.305Z,37.22
2019-05-14T14:16:31.754Z,37.40
2019-05-14T14:19:08.599Z,37.53
2019-05-14T14:21:42.671Z,37.73
2019-05-14T14:24:19.528Z,37.91
2019-05-14T14:26:53.420Z,38.07
2019-05-14T14:29:28.176Z,38.17
2019-05-14T14:32:02.624Z,38.32
2019-05-14T14:34:40.985Z,38.43
2019-05-14T14:37:12.932Z,38.43
2019-05-14T14:39:48.623Z,38.68
2019-05-14T14:42:23.108Z,38.78
2019-05-14T14:44:59.674Z,38.84
2019-05-14T14:47:33.833Z,39.50
2019-05-14T14:50:30.835Z,39.65
2019-05-14T14:53:09.260Z,39.63
2019-05-14T14:55:49.749Z,39.67
2019-05-14T14:58:23.890Z,39.77
2019-05-14T15:00:59.485Z,39.90
2019-05-14T15:03:33.808Z,39.93
2019-05-14T15:06:09.679Z,39.98
2019-05-14T15:08:49.416Z,40.08
2019-05-14T15:11:22.495Z,39.95
2019-05-14T15:13:58.724Z,40.09
2019-05-14T15:16:32.570Z,40.22
2019-05-14T15:19:09.234Z,40.36
2019-05-14T15:21:42.843Z,40.36
2019-05-14T15:24:19.439Z,40.59
2019-05-14T15:26:52.870Z,40.56
2019-05-14T15:29:28.421Z,40.62
2019-05-14T15:32:03.937Z,40.71
2019-05-14T15:34:38.119Z,40.80
2019-05-14T15:37:12.120Z,40.70
2019-05-14T15:39:48.906Z,40.99
2019-05-14T15:42:22.437Z,41.01
2019-05-14T15:44:59.577Z,41.12
2019-05-14T15:47:33.790Z,41.36
2019-05-14T15:50:09.212Z,41.53
2019-05-14T15:52:43.890Z,41.95
2019-05-14T15:55:18.492Z,42.07
2019-05-14T15:57:53.696Z,42.04
2019-05-14T16:00:29.233Z,41.96
2019-05-14T16:03:03.321Z,41.96
2019-05-14T16:05:39.397Z,41.95
2019-05-14T16:08:13.452Z,42.08
2019-05-14T16:10:47.469Z,42.12
2019-05-14T16:13:21.716Z,42.08
2019-05-14T16:15:55.690Z,42.08
2019-05-14T16:18:29.886Z,41.96
2019-05-14T16:21:03.932Z,41.84
2019-05-14T16:23:39.286Z,41.80
2019-05-14T16:26:13.742Z,41.87
2019-05-14T16:28:48.236Z,42.82
2019-05-14T16:31:22.520Z,42.10
2019-05-14T16:33:56.424Z,39.85
2019-05-14T16:36:30.778Z,37.96
2019-05-14T16:39:05.550Z,36.58
2019-05-14T16:41:39.869Z,35.65
2019-05-14T16:44:14.543Z,35.10
2019-05-14T16:46:48.887Z,34.04
2019-05-14T16:49:23.324Z,33.60
2019-05-14T16:51:59.662Z,33.39
2019-05-14T16:54:39.599Z,32.98
2019-05-14T16:57:13.700Z,32.71
2019-05-14T16:59:49.585Z,33.10
2019-05-14T17:02:24.642Z,33.42
2019-05-14T17:05:00.338Z,33.63
2019-05-14T17:07:38.527Z,34.01
2019-05-14T17:10:12.649Z,34.27
2019-05-14T17:12:53.656Z,34.97
2019-05-14T17:15:23.076Z,35.22
2019-05-14T17:17:59.681Z,35.96
2019-05-14T17:20:32.895Z,37.87
2019-05-14T17:23:09.040Z,38.24
2019-05-14T17:25:43.154Z,38.54
2019-05-14T17:28:20.937Z,38.95
2019-05-14T17:30:55.584Z,39.04
2019-05-14T17:33:30.177Z,39.23
2019-05-14T17:36:04.506Z,39.35
2019-05-14T17:38:39.313Z,40.19
2019-05-14T17:41:13.731Z,39.92
2019-05-14T17:43:49.287Z,39.86
2019-05-14T17:46:23.744Z,39.96
2019-05-14T17:48:59.144Z,40.00
2019-05-14T17:51:33.480Z,40.01
2019-05-14T17:54:09.264Z,40.47
2019-05-14T17:56:43.727Z,40.79
2019-05-14T17:59:19.141Z,41.10
2019-05-14T18:01:53.767Z,41.48
2019-05-14T18:04:28.355Z,41.72
2019-05-14T18:07:02.759Z,41.95
2019-05-14T18:09:40.457Z,42.00
2019-05-14T18:12:22.149Z,42.05
2019-05-14T18:14:58.796Z,41.99
2019-05-14T18:17:32.688Z,41.93
2019-05-14T18:20:08.429Z,41.76
2019-05-14T18:22:42.812Z,41.56
2019-05-14T18:25:19.332Z,41.33
2019-05-14T18:27:54.610Z,41.32
2019-05-14T18:30:29.150Z,41.14
2019-05-14T18:33:03.963Z,41.17
2019-05-14T18:35:47.410Z,40.94
2019-05-14T18:38:20.735Z,40.89
2019-05-14T18:40:55.150Z,40.98
2019-05-14T18:43:30.249Z,44.05
2019-05-14T18:46:04.345Z,46.13
2019-05-14T18:48:38.551Z,47.07
2019-05-14T18:51:12.796Z,47.22
2019-05-14T18:53:48.932Z,46.48
2019-05-14T18:56:24.470Z,45.61
2019-05-14T18:58:59.776Z,44.88
2019-05-14T19:01:33.868Z,44.26
2019-05-14T19:04:08.331Z,43.83
2019-05-14T19:06:42.595Z,43.26
2019-05-14T19:09:18.600Z,42.94
2019-05-14T19:11:53.040Z,42.73
2019-05-14T19:14:29.226Z,42.43
2019-05-14T19:17:03.341Z,42.22
2019-05-14T19:19:38.602Z,41.97
2019-05-14T19:22:13.194Z,41.91
2019-05-14T19:24:49.208Z,41.92
2019-05-14T19:27:23.635Z,42.23
2019-05-14T19:29:59.502Z,42.67
2019-05-14T19:32:34.304Z,43.02
2019-05-14T19:35:08.959Z,43.36
2019-05-14T19:37:43.208Z,43.69
2019-05-14T19:40:18.983Z,43.94
2019-05-14T19:42:56.435Z,44.08
2019-05-14T19:45:30.624Z,44.48
2019-05-14T19:48:04.643Z,44.80
2019-05-14T19:50:39.283Z,45.12
2019-05-14T19:53:14.516Z,45.42
2019-05-14T19:55:48.826Z,45.38
2019-05-14T19:58:25.860Z,45.72
2019-05-14T20:01:00.163Z,45.97
2019-05-14T20:03:34.438Z,46.08
2019-05-14T20:06:09.230Z,46.21
2019-05-14T20:08:43.314Z,46.28
2019-05-14T20:11:19.294Z,46.37
2019-05-14T20:13:53.120Z,46.17
2019-05-14T20:16:28.579Z,45.54
2019-05-14T20:19:03.019Z,44.97
2019-05-14T20:21:38.777Z,44.29
2019-05-14T20:24:12.735Z,43.35
2019-05-14T20:26:48.889Z,42.67
2019-05-14T20:29:22.764Z,42.15
2019-05-14T20:31:59.478Z,41.75
2019-05-14T20:34:32.456Z,41.22
2019-05-14T20:37:08.472Z,40.85
2019-05-14T20:39:41.794Z,40.55
2019-05-14T20:42:18.340Z,40.30
2019-05-14T20:44:51.369Z,40.05
2019-05-14T20:47:25.480Z,40.27
2019-05-14T20:49:59.548Z,40.72
2019-05-14T20:52:33.895Z,41.77
2019-05-14T20:55:09.746Z,42.98
2019-05-14T20:57:43.811Z,44.21
2019-05-14T21:00:19.301Z,45.20
2019-05-14T21:02:53.708Z,46.10
2019-05-14T21:05:28.662Z,46.59
2019-05-14T21:08:03.255Z,46.89
2019-05-14T21:10:38.474Z,46.74
2019-05-14T21:13:12.790Z,46.75
2019-05-14T21:15:48.277Z,46.33
2019-05-14T21:18:34.368Z,46.22
2019-05-14T21:20:58.871Z,45.40
2019-05-14T21:23:33.014Z,45.91
2019-05-14T21:26:08.530Z,46.04
2019-05-14T21:28:42.941Z,46.15
2019-05-14T21:31:18.113Z,45.44
2019-05-14T21:33:54.540Z,45.22
2019-05-14T21:36:28.854Z,45.75
2019-05-14T21:39:02.885Z,45.67
2019-05-14T21:41:38.631Z,45.55
2019-05-14T21:44:12.975Z,45.31
2019-05-14T21:46:48.256Z,45.17
2019-05-14T21:49:22.460Z,45.01
2019-05-14T21:51:58.430Z,44.02
2019-05-14T21:54:33.010Z,43.32
2019-05-14T21:57:08.492Z,44.31
2019-05-14T21:59:43.162Z,44.36
2019-05-14T22:02:26.963Z,44.26
2019-05-14T22:04:55.481Z,44.29
2019-05-14T22:07:30.050Z,44.30
2019-05-14T22:10:04.410Z,44.32
2019-05-14T22:12:39.455Z,44.30
2019-05-14T22:15:14.270Z,43.49
2019-05-14T22:17:49.316Z,43.11
2019-05-14T22:20:23.611Z,44.33
2019-05-14T22:22:59.087Z,43.68
2019-05-14T22:25:34.558Z,44.03
2019-05-14T22:28:14.906Z,44.12
2019-05-14T22:30:44.380Z,44.26
2019-05-14T22:33:19.085Z,44.39
2019-05-14T22:35:53.538Z,44.49
2019-05-14T22:38:29.341Z,43.64
2019-05-14T22:41:04.837Z,44.06
2019-05-14T22:43:39.016Z,44.89
2019-05-14T22:46:13.344Z,44.50
2019-05-14T22:48:51.262Z,44.14
2019-05-14T22:51:23.415Z,44.06
2019-05-14T22:53:58.969Z,43.37
2019-05-14T22:56:33.284Z,43.42
2019-05-14T22:59:07.275Z,43.08
2019-05-14T23:01:41.512Z,42.36
2019-05-14T23:04:15.481Z,43.70
2019-05-14T23:06:49.737Z,43.71
2019-05-14T23:09:23.927Z,43.61
2019-05-14T23:11:58.924Z,43.56
2019-05-14T23:14:33.415Z,43.48
2019-05-14T23:17:08.198Z,43.45
2019-05-14T23:19:42.665Z,43.50
2019-05-14T23:22:18.576Z,43.16
2019-05-14T23:24:52.902Z,42.29
2019-05-14T23:27:29.223Z,43.94
2019-05-14T23:30:06.985Z,43.99
2019-05-14T23:32:41.756Z,44.03
2019-05-14T23:35:18.478Z,44.19
2019-05-14T23:37:51.810Z,44.28
2019-05-14T23:40:26.087Z,44.44
2019-05-14T23:43:00.263Z,44.60
2019-05-14T23:45:34.457Z,43.73
2019-05-14T23:48:09.498Z,44.17
2019-05-14T23:50:43.692Z,44.78
2019-05-14T23:53:18.393Z,44.58
2019-05-14T23:55:52.767Z,43.76
2019-05-14T23:58:28.966Z,44.05
